createdAt,value
2018-09-12T00:01:27.627Z,18
2018-09-12T00:11:28.074Z,18
2018-09-12T00:21:27.252Z,19
2018-09-12T00:31:28.305Z,18
2018-09-12T00:41:26.240Z,18
2018-09-12T00:51:28.279Z,18
2018-09-12T01:01:27.829Z,18
2018-09-12T01:11:26.828Z,18
2018-09-12T01:21:28.962Z,18
2018-09-12T01:31:27.909Z,18
2018-09-12T01:41:30.612Z,18
2018-09-12T01:51:26.505Z,18
2018-09-12T02:01:28.344Z,17
2018-09-12T02:11:29.580Z,18
2018-09-12T02:21:27.745Z,18
2018-09-12T02:31:26.995Z,17
2018-09-12T02:41:27.546Z,17
2018-09-12T02:51:27.694Z,17
2018-09-12T03:01:27.821Z,17
2018-09-12T03:11:28.680Z,17
2018-09-12T03:21:27.899Z,17
2018-09-12T03:31:27.075Z,17
2018-09-12T03:41:27.970Z,17
2018-09-12T03:51:27.938Z,17
2018-09-12T04:01:29.310Z,17
2018-09-12T04:11:28.135Z,17
2018-09-12T04:21:27.112Z,17
2018-09-12T04:31:28.383Z,17
2018-09-12T04:41:28.298Z,17
2018-09-12T04:51:27.875Z,17
2018-09-12T05:01:28.203Z,17
2018-09-12T05:11:28.676Z,17
2018-09-12T05:21:28.265Z,17
2018-09-12T05:31:28.180Z,17
2018-09-12T05:41:27.137Z,17
2018-09-12T05:51:28.217Z,17
2018-09-12T06:01:28.259Z,18
2018-09-12T06:11:26.477Z,17
2018-09-12T06:21:27.274Z,18
2018-09-12T06:31:28.456Z,18
2018-09-12T06:41:26.746Z,18
2018-09-12T06:51:29.251Z,19
2018-09-12T07:01:28.532Z,19
2018-09-12T07:11:28.572Z,19
2018-09-12T07:21:26.897Z,19
2018-09-12T07:31:28.283Z,19
2018-09-12T07:41:27.812Z,20
2018-09-12T07:51:27.551Z,20
2018-09-12T08:01:27.869Z,20
2018-09-12T08:11:27.429Z,20
2018-09-12T08:21:28.368Z,21
2018-09-12T08:31:26.828Z,21
2018-09-12T08:41:27.058Z,21
2018-09-12T08:51:26.295Z,21
2018-09-12T09:01:27.115Z,22
2018-09-12T09:11:26.756Z,22
2018-09-12T09:21:27.465Z,22
2018-09-12T09:31:27.142Z,22
2018-09-12T09:41:28.157Z,23
2018-09-12T09:51:28.013Z,23
2018-09-12T10:01:27.426Z,23
2018-09-12T10:11:27.081Z,23
2018-09-12T10:21:27.553Z,23
2018-09-12T10:31:29.349Z,24
2018-09-12T10:41:26.671Z,24
2018-09-12T10:51:26.902Z,24
2018-09-12T11:01:27.440Z,24
2018-09-12T11:11:26.593Z,25
2018-09-12T11:21:27.489Z,25
2018-09-12T11:31:26.808Z,25
2018-09-12T11:41:27.134Z,25
2018-09-12T11:51:27.257Z,25
2018-09-12T12:01:27.379Z,25
2018-09-12T12:11:26.544Z,25
2018-09-12T12:21:27.067Z,26
2018-09-12T12:31:28.001Z,26
2018-09-12T12:41:27.493Z,26
2018-09-12T12:51:26.708Z,26
2018-09-12T13:01:26.871Z,26
2018-09-12T13:11:27.317Z,27
2018-09-12T13:21:27.053Z,26
2018-09-12T13:31:26.889Z,26
2018-09-12T13:41:27.775Z,27
2018-09-12T13:51:27.636Z,27
2018-09-12T14:01:27.337Z,27
2018-09-12T14:11:26.870Z,27
2018-09-12T14:21:27.765Z,27
2018-09-12T14:31:27.702Z,27
2018-09-12T14:41:27.167Z,27
2018-09-12T14:51:28.794Z,27
2018-09-12T15:01:28.544Z,27
2018-09-12T15:11:26.707Z,27
2018-09-12T15:21:26.949Z,28
2018-09-12T15:31:27.101Z,27
2018-09-12T15:41:30.687Z,27
2018-09-12T15:51:28.046Z,27
2018-09-12T16:01:28.618Z,26
2018-09-12T16:11:29.490Z,26
2018-09-12T16:21:26.843Z,26
2018-09-12T16:31:27.728Z,26
2018-09-12T16:41:28.960Z,26
2018-09-12T16:51:27.405Z,26
2018-09-12T17:01:26.755Z,26
2018-09-12T17:11:26.710Z,26
2018-09-12T17:21:28.374Z,25
2018-09-12T17:31:27.806Z,25
2018-09-12T17:41:27.312Z,24
2018-09-12T17:51:26.336Z,24
2018-09-12T18:01:26.870Z,24
2018-09-12T18:11:27.627Z,24
2018-09-12T18:21:35.248Z,24
2018-09-12T18:31:27.159Z,24
2018-09-12T18:41:28.260Z,23
2018-09-12T18:51:28.175Z,24
2018-09-12T19:01:27.138Z,23
2018-09-12T19:11:27.415Z,23
2018-09-12T19:21:27.354Z,23
2018-09-12T19:31:26.775Z,22
2018-09-12T19:41:29.214Z,22
2018-09-12T19:51:28.858Z,22
2018-09-12T20:01:27.464Z,22
2018-09-12T20:11:29.100Z,22
2018-09-12T20:21:29.490Z,22
2018-09-12T20:31:27.074Z,22
2018-09-12T20:41:27.317Z,22
2018-09-12T20:51:26.258Z,22
2018-09-12T21:01:27.080Z,22
2018-09-12T21:11:27.654Z,21
2018-09-12T21:21:27.091Z,22
2018-09-12T21:31:27.148Z,21
2018-09-12T21:41:27.703Z,21
2018-09-12T21:51:26.848Z,22
2018-09-12T22:01:26.774Z,21
2018-09-12T22:11:27.839Z,21
2018-09-12T22:21:29.432Z,21
2018-09-12T22:31:27.022Z,21
2018-09-12T22:41:27.336Z,20
2018-09-12T22:51:29.654Z,20
2018-09-12T23:01:26.529Z,21
2018-09-12T23:11:26.995Z,20
2018-09-12T23:21:27.038Z,20
2018-09-12T23:31:27.068Z,20
2018-09-12T23:41:26.962Z,20
2018-09-12T23:51:27.460Z,20
